Time;durP1;ratioP1;P1;durP2;ratioP2;P2;SDS_P1;SDS_P2;PMS_P1;PMS_P2;Temp;Humidity;BMP_temperature;BMP_pressure;BME280_temperature;BME280_humidity;BME280_pressure;Samples;Min_cycle;Max_cycle;Signal;HPM_P1;HPM_P2
2022/01/22 11:46:58;;;;;;;13.30;11.33;;;0.80;99.90;;;;;;5621985;23;20872;-79
2022/01/22 11:49:28;;;;;;;15.43;10.77;;;0.80;99.90;;;;;;4883393;29;20447;-76
2022/01/22 11:52:22;;;;;;;14.10;10.80;;;0.80;99.90;;;;;;4884933;29;20557;-76
2022/01/22 11:54:53;;;;;;;14.13;11.43;;;0.90;99.90;;;;;;4897089;29;20963;-75
2022/01/22 11:57:23;;;;;;;13.07;11.27;;;0.90;99.90;;;;;;4899310;29;20481;-77
2022/01/22 12:00:23;;;;;;;13.47;10.53;;;0.80;99.90;;;;;;4893125;29;20967;-73
2022/01/22 12:03:21;;;;;;;14.93;11.23;;;0.80;99.90;;;;;;4900058;29;20563;-75
2022/01/22 12:06:12;;;;;;;13.20;11.27;;;0.80;99.90;;;;;;4899464;29;20936;-79
2022/01/22 12:09:11;;;;;;;13.03;10.40;;;0.80;99.90;;;;;;4898608;29;20458;-79
2022/01/22 12:15:04;;;;;;;15.83;11.80;;;0.80;99.90;;;;;;4844517;29;20454;-79
2022/01/22 12:18:00;;;;;;;14.17;11.27;;;0.90;99.90;;;;;;4830983;29;20520;-77
2022/01/22 12:23:57;;;;;;;13.23;10.30;;;1.10;99.90;;;;;;4897385;29;20966;-79
2022/01/22 12:26:47;;;;;;;14.37;10.80;;;1.10;99.90;;;;;;4899810;29;20839;-77
2022/01/22 12:29:43;;;;;;;13.17;10.57;;;1.00;99.90;;;;;;4895412;29;20470;-76
2022/01/22 12:32:28;;;;;;;14.13;11.47;;;1.10;99.90;;;;;;4880692;29;20466;-77
2022/01/22 12:35:07;;;;;;;13.23;11.53;;;1.00;99.90;;;;;;4880711;29;20487;-78
2022/01/22 12:37:48;;;;;;;12.77;10.83;;;1.10;99.90;;;;;;4880923;29;20518;-77
2022/01/22 12:40:28;;;;;;;12.77;10.77;;;1.10;99.90;;;;;;4886019;29;20900;-75
2022/01/22 12:43:05;;;;;;;13.13;11.60;;;1.10;99.90;;;;;;4893766;29;20529;-75
2022/01/22 12:45:36;;;;;;;12.37;10.73;;;1.10;99.90;;;;;;4900710;29;20490;-75
2022/01/22 12:48:05;;;;;;;13.80;10.97;;;1.10;99.90;;;;;;4898756;29;20457;-79
2022/01/22 12:50:37;;;;;;;12.57;10.47;;;1.10;99.90;;;;;;4898882;29;20494;-78
2022/01/22 12:53:15;;;;;;;12.77;11.20;;;1.10;99.90;;;;;;4898282;29;20516;-76
2022/01/22 12:58:33;;;;;;;13.10;11.47;;;1.20;99.90;;;;;;4899010;29;20580;-78
2022/01/22 13:01:14;;;;;;;13.73;10.47;;;1.10;99.90;;;;;;4898916;29;20565;-77
2022/01/22 13:03:44;;;;;;;14.93;11.33;;;1.10;99.90;;;;;;4910463;29;20449;-78
2022/01/22 13:06:14;;;;;;;12.87;10.40;;;1.10;99.90;;;;;;4919014;29;20457;-78
2022/01/22 13:08:44;;;;;;;13.53;11.27;;;1.10;99.90;;;;;;4899478;29;20502;-78
2022/01/22 13:11:20;;;;;;;14.77;10.97;;;1.10;99.90;;;;;;4912016;29;20458;-77
2022/01/22 13:13:51;;;;;;;14.07;11.80;;;1.10;99.90;;;;;;4903719;29;21011;-76
2022/01/22 13:16:19;;;;;;;14.93;11.67;;;1.00;99.90;;;;;;4899274;29;20489;-77
2022/01/22 13:18:52;;;;;;;13.47;11.37;;;1.10;99.90;;;;;;4907132;29;20521;-75
2022/01/22 13:21:21;;;;;;;14.03;11.20;;;1.10;99.90;;;;;;4910808;29;20959;-79
2022/01/22 13:24:05;;;;;;;13.20;10.97;;;1.10;99.90;;;;;;4910778;29;20540;-76
2022/01/22 13:26:44;;;;;;;13.90;11.20;;;1.10;99.90;;;;;;4912641;29;20468;-77
2022/01/22 13:29:17;;;;;;;12.77;10.93;;;1.00;99.90;;;;;;4908296;29;21027;-79
2022/01/22 13:32:05;;;;;;;15.40;11.23;;;1.00;99.90;;;;;;4912262;29;20552;-78
2022/01/22 13:35:02;;;;;;;13.73;12.23;;;1.00;99.90;;;;;;4909016;29;20582;-75
2022/01/22 13:38:02;;;;;;;13.50;11.83;;;0.90;99.90;;;;;;4913603;29;20488;-79
2022/01/22 13:41:01;;;;;;;14.67;12.03;;;0.90;99.90;;;;;;4912717;29;20481;-76
2022/01/22 13:49:18;;;;;;;15.40;13.00;;;0.90;99.90;;;;;;4911670;29;20457;-79
2022/01/22 13:51:47;;;;;;;16.40;13.03;;;0.90;99.90;;;;;;4909996;29;20564;-75
2022/01/22 13:54:17;;;;;;;15.77;12.37;;;0.90;99.90;;;;;;4898823;29;20517;-74
2022/01/22 13:56:51;;;;;;;17.07;11.97;;;0.80;99.90;;;;;;4914080;29;20465;-76
2022/01/22 13:59:22;;;;;;;15.10;12.37;;;0.90;99.90;;;;;;4918730;29;20774;-76
2022/01/22 14:02:07;;;;;;;15.17;11.97;;;0.90;99.90;;;;;;4917647;29;20450;-76
2022/01/22 14:04:40;;;;;;;14.53;12.60;;;0.80;99.90;;;;;;4901969;29;20544;-73
2022/01/22 14:07:19;;;;;;;15.80;12.47;;;0.90;99.90;;;;;;4918504;29;20481;-75
2022/01/22 14:09:52;;;;;;;15.50;13.00;;;0.80;99.90;;;;;;4899268;29;20489;-77
2022/01/22 14:12:23;;;;;;;16.47;13.03;;;0.90;99.90;;;;;;4895494;29;20481;-75
2022/01/22 14:15:01;;;;;;;17.27;13.33;;;0.90;99.90;;;;;;4882480;29;20478;-77
2022/01/22 14:17:37;;;;;;;16.03;13.30;;;0.90;99.90;;;;;;4887501;29;20493;-74
2022/01/22 14:20:12;;;;;;;16.70;13.10;;;0.90;99.90;;;;;;4901001;29;20485;-74
2022/01/22 14:23:04;;;;;;;14.80;12.17;;;0.90;99.90;;;;;;4898357;29;20517;-75
2022/01/22 14:25:33;;;;;;;16.77;13.33;;;0.90;99.90;;;;;;4879526;29;20473;-76
2022/01/22 14:28:09;;;;;;;15.17;12.40;;;0.90;99.90;;;;;;4897812;29;20466;-76
2022/01/22 14:30:41;;;;;;;16.13;12.90;;;0.90;99.90;;;;;;4897571;29;20451;-79
2022/01/22 14:33:10;;;;;;;17.83;12.17;;;0.90;99.90;;;;;;4897677;29;20430;-76
2022/01/22 14:35:40;;;;;;;16.50;12.97;;;0.90;99.90;;;;;;4895883;29;20221;-77
2022/01/22 14:47:02;;;;;;;18.53;14.07;;;0.80;99.90;;;;;;4912688;29;20460;-78
2022/01/22 14:49:33;;;;;;;16.53;13.10;;;0.70;99.90;;;;;;4920863;29;20438;-76
2022/01/22 14:52:02;;;;;;;18.57;14.30;;;0.70;99.90;;;;;;4914579;29;20905;-78
2022/01/22 14:54:34;;;;;;;20.13;13.77;;;0.70;99.90;;;;;;4898833;29;20872;-77
2022/01/22 14:57:03;;;;;;;21.33;13.63;;;0.70;99.90;;;;;;4897998;29;20503;-78
2022/01/22 14:59:33;;;;;;;16.47;13.67;;;0.70;99.90;;;;;;4883675;29;21004;-78
2022/01/22 15:02:01;;;;;;;19.10;14.07;;;0.60;99.90;;;;;;4877287;29;20562;-78
2022/01/22 15:04:31;;;;;;;18.43;13.70;;;0.60;99.90;;;;;;4893772;29;20489;-78
2022/01/22 15:07:02;;;;;;;18.53;15.00;;;0.60;99.90;;;;;;4895983;29;20462;-79
2022/01/22 15:09:30;;;;;;;18.07;14.53;;;0.60;99.90;;;;;;4896610;29;20499;-79
2022/01/22 15:11:59;;;;;;;20.37;14.43;;;0.60;99.90;;;;;;4879270;29;20526;-79
2022/01/22 15:14:28;;;;;;;20.30;14.73;;;0.70;99.90;;;;;;4878418;29;20447;-79
2022/01/22 15:19:49;;;;;;;19.87;14.77;;;0.50;99.90;;;;;;4880884;29;20524;-77
2022/01/22 15:22:23;;;;;;;22.23;14.60;;;0.50;99.90;;;;;;4899883;29;20446;-77
2022/01/22 15:24:53;;;;;;;22.07;17.20;;;0.50;99.90;;;;;;4901302;29;20533;-77
2022/01/22 15:27:22;;;;;;;25.73;17.83;;;0.50;99.90;;;;;;4900736;29;20536;-76
2022/01/22 15:29:56;;;;;;;26.53;17.23;;;0.50;99.90;;;;;;4885279;29;20490;-75
2022/01/22 15:32:41;;;;;;;23.50;16.63;;;0.60;99.90;;;;;;4896463;29;20570;-79
2022/01/22 15:35:12;;;;;;;23.77;16.80;;;0.60;99.90;;;;;;4899609;29;20489;-77
2022/01/22 15:37:47;;;;;;;22.23;16.40;;;0.60;99.90;;;;;;4906034;29;20836;-78
2022/01/22 15:40:16;;;;;;;22.23;16.73;;;0.70;99.90;;;;;;4900539;29;20430;-76
2022/01/22 15:42:44;;;;;;;24.43;16.90;;;0.50;99.90;;;;;;4900614;29;21042;-77
2022/01/22 15:45:13;;;;;;;26.33;17.87;;;0.50;99.90;;;;;;4897697;29;20808;-77
2022/01/22 15:47:44;;;;;;;25.10;17.40;;;0.50;99.90;;;;;;4888584;29;20500;-78
2022/01/22 15:50:13;;;;;;;27.67;16.80;;;0.50;99.90;;;;;;4895552;29;20449;-78
2022/01/22 15:53:01;;;;;;;28.23;17.40;;;0.50;99.90;;;;;;4899869;29;20513;-79
2022/01/22 15:55:29;;;;;;;28.07;17.93;;;0.60;99.90;;;;;;4900194;29;20442;-75
2022/01/22 15:57:57;;;;;;;29.77;18.80;;;0.50;99.90;;;;;;4886977;29;20458;-73
2022/01/22 16:00:27;;;;;;;30.53;18.53;;;0.50;99.90;;;;;;4889229;29;20473;-78
2022/01/22 16:02:57;;;;;;;29.23;18.43;;;0.50;99.90;;;;;;4896388;29;20644;-77
2022/01/22 16:05:25;;;;;;;32.30;19.67;;;0.50;99.90;;;;;;4899594;29;21052;-78
2022/01/22 16:07:54;;;;;;;38.57;21.33;;;0.50;99.90;;;;;;4887265;29;20485;-79
2022/01/22 16:10:43;;;;;;;31.10;19.03;;;0.50;99.90;;;;;;4880669;29;20482;-78
2022/01/22 16:13:11;;;;;;;23.87;16.80;;;0.50;99.90;;;;;;4881384;29;20483;-75
2022/01/22 16:15:41;;;;;;;24.43;17.27;;;0.50;99.90;;;;;;4893104;29;20484;-77
2022/01/22 16:18:10;;;;;;;26.87;18.40;;;0.50;99.90;;;;;;4898913;29;20501;-79
2022/01/22 16:20:39;;;;;;;25.43;18.23;;;0.50;99.90;;;;;;4899349;29;20458;-78
2022/01/22 16:23:08;;;;;;;29.00;19.07;;;0.40;99.90;;;;;;4896912;29;20492;-78
2022/01/22 16:25:41;;;;;;;29.00;17.87;;;0.50;99.90;;;;;;4891609;29;20470;-79
2022/01/22 16:28:09;;;;;;;28.93;19.30;;;0.50;99.90;;;;;;4899384;29;20451;-78
2022/01/22 16:30:38;;;;;;;27.67;19.00;;;0.40;99.90;;;;;;4898456;29;20517;-76
2022/01/22 16:33:06;;;;;;;20.57;16.67;;;0.50;99.90;;;;;;4898775;29;20468;-77
2022/01/22 16:35:36;;;;;;;22.00;16.60;;;0.50;99.90;;;;;;4892222;29;20470;-77
2022/01/22 16:38:06;;;;;;;22.40;17.10;;;0.50;99.90;;;;;;4888763;29;20458;-75
2022/01/22 16:40:35;;;;;;;24.93;17.70;;;0.50;99.90;;;;;;4896530;29;20539;-76
2022/01/22 16:43:05;;;;;;;22.83;17.77;;;0.40;99.90;;;;;;4897592;29;21040;-76
2022/01/22 16:46:08;;;;;;;23.43;18.03;;;0.40;99.90;;;;;;4899294;29;20510;-75
2022/01/22 16:51:34;;;;;;;24.80;18.37;;;0.40;99.90;;;;;;4896301;29;21022;-75
2022/01/22 16:57:07;;;;;;;25.70;20.07;;;0.40;99.90;;;;;;4894330;29;20457;-77
2022/01/22 16:59:52;;;;;;;26.00;19.60;;;0.40;99.90;;;;;;4886125;29;21063;-75
2022/01/22 17:02:33;;;;;;;22.87;18.47;;;0.50;99.90;;;;;;4897805;29;20441;-76
2022/01/22 17:05:07;;;;;;;25.33;18.17;;;0.50;99.90;;;;;;4890163;29;20466;-77
2022/01/22 17:07:44;;;;;;;22.93;18.10;;;0.40;99.90;;;;;;4898019;29;20506;-78
2022/01/22 17:10:22;;;;;;;26.07;19.17;;;0.50;99.90;;;;;;4897179;29;20462;-77
2022/01/22 17:15:37;;;;;;;28.30;20.23;;;0.40;99.90;;;;;;4904070;29;20983;-74
2022/01/22 17:18:07;;;;;;;26.13;20.13;;;0.40;99.90;;;;;;4894142;29;20538;-75
2022/01/22 17:20:35;;;;;;;22.50;18.10;;;0.40;99.90;;;;;;4894626;29;20520;-75
2022/01/22 17:23:06;;;;;;;22.40;18.57;;;0.50;99.90;;;;;;4896901;29;20458;-75
2022/01/22 17:25:36;;;;;;;25.40;19.10;;;0.50;99.90;;;;;;4894175;29;20505;-76
2022/01/22 17:28:07;;;;;;;24.33;18.80;;;0.50;99.90;;;;;;4899268;29;20437;-73
2022/01/22 17:30:39;;;;;;;24.40;19.10;;;0.50;99.90;;;;;;4900294;29;20458;-75
2022/01/22 17:33:08;;;;;;;23.53;19.23;;;0.40;99.90;;;;;;4895659;29;20955;-73
2022/01/22 17:35:39;;;;;;;24.10;20.17;;;0.40;99.90;;;;;;4893863;29;20469;-74
2022/01/22 17:38:10;;;;;;;24.30;18.53;;;0.40;99.90;;;;;;4892426;29;20558;-76
2022/01/22 17:40:46;;;;;;;25.33;19.90;;;0.40;99.90;;;;;;4894384;29;20587;-74
2022/01/22 17:43:15;;;;;;;26.00;20.77;;;0.50;99.90;;;;;;4890883;29;20477;-74
2022/01/22 17:45:46;;;;;;;25.87;19.50;;;0.50;99.90;;;;;;4896549;29;20482;-76
2022/01/22 17:48:16;;;;;;;26.80;20.20;;;0.50;99.90;;;;;;4889618;29;20573;-75
2022/01/22 17:50:48;;;;;;;26.53;20.33;;;0.50;99.90;;;;;;4886248;29;20896;-74
2022/01/22 17:53:18;;;;;;;25.70;20.43;;;0.50;99.90;;;;;;4892238;29;21045;-75
2022/01/22 17:55:46;;;;;;;25.20;20.47;;;0.50;99.90;;;;;;4901603;29;20500;-77
2022/01/22 17:58:15;;;;;;;28.03;20.77;;;0.50;99.90;;;;;;4909395;29;20513;-78
2022/01/22 18:01:09;;;;;;;26.43;21.30;;;0.50;99.90;;;;;;4896555;29;21115;-75
2022/01/22 18:03:49;;;;;;;26.83;21.47;;;0.50;99.90;;;;;;4893725;29;20512;-75
2022/01/22 18:06:18;;;;;;;26.47;20.20;;;0.50;99.90;;;;;;4880916;29;20445;-75
2022/01/22 18:08:50;;;;;;;28.83;21.67;;;0.60;99.90;;;;;;4881434;29;20475;-77
2022/01/22 18:11:21;;;;;;;27.40;22.77;;;0.50;99.90;;;;;;4885945;29;20462;-76
2022/01/22 18:13:50;;;;;;;29.07;22.40;;;0.50;99.90;;;;;;4908925;29;20503;-76
2022/01/22 18:16:18;;;;;;;26.80;21.33;;;0.60;99.90;;;;;;4921045;29;20455;-77
2022/01/22 18:18:47;;;;;;;28.23;22.50;;;0.60;99.90;;;;;;4907959;29;20453;-75
2022/01/22 18:21:32;;;;;;;30.57;22.67;;;0.60;99.90;;;;;;4900040;29;20568;-75
2022/01/22 18:24:06;;;;;;;26.47;21.70;;;0.60;99.90;;;;;;4900194;29;20497;-75
2022/01/22 18:26:34;;;;;;;26.10;21.07;;;0.60;99.90;;;;;;4899891;29;21159;-77
2022/01/22 18:29:05;;;;;;;27.87;20.77;;;0.60;99.90;;;;;;4897948;29;20465;-76
2022/01/22 18:31:34;;;;;;;26.20;21.30;;;0.70;99.90;;;;;;4899762;29;20441;-76
2022/01/22 18:34:06;;;;;;;27.43;21.13;;;0.70;99.90;;;;;;4908183;29;20494;-76
2022/01/22 18:36:35;;;;;;;27.37;20.97;;;0.70;99.90;;;;;;4898086;29;20501;-76
2022/01/22 18:39:08;;;;;;;28.03;21.20;;;0.70;99.90;;;;;;4899602;29;20446;-76
2022/01/22 18:41:39;;;;;;;26.23;20.80;;;0.70;99.90;;;;;;4899081;29;20490;-75
2022/01/22 18:44:11;;;;;;;29.87;21.63;;;0.70;99.90;;;;;;4898688;29;20220;-76
2022/01/22 18:46:40;;;;;;;25.80;20.50;;;0.70;99.90;;;;;;4907326;29;20487;-75
2022/01/22 18:49:17;;;;;;;26.97;21.80;;;0.70;99.90;;;;;;4879373;29;20463;-76
2022/01/22 18:51:50;;;;;;;26.63;21.13;;;0.70;99.90;;;;;;4880026;29;20435;-76
2022/01/22 18:54:23;;;;;;;25.93;20.53;;;0.70;99.90;;;;;;4883825;29;20454;-75
2022/01/22 18:56:51;;;;;;;24.33;20.53;;;0.70;99.90;;;;;;4883838;29;20509;-76
2022/01/22 18:59:19;;;;;;;24.13;20.13;;;0.70;99.90;;;;;;4886356;29;20469;-76
2022/01/22 19:01:48;;;;;;;24.77;20.90;;;0.70;99.90;;;;;;4886547;29;20609;-77
2022/01/22 19:04:20;;;;;;;25.57;20.73;;;0.70;99.90;;;;;;4884552;29;20463;-77
2022/01/22 19:06:48;;;;;;;23.30;19.77;;;0.70;99.90;;;;;;4884021;29;20530;-76
2022/01/22 19:09:17;;;;;;;23.53;19.43;;;0.80;99.90;;;;;;4884448;29;20462;-76
2022/01/22 19:11:47;;;;;;;23.33;20.20;;;0.80;99.90;;;;;;4901756;29;20454;-75
2022/01/22 19:14:15;;;;;;;23.57;19.67;;;0.70;99.90;;;;;;4901598;29;20426;-75
2022/01/22 19:16:43;;;;;;;25.67;21.07;;;0.80;99.90;;;;;;4902049;29;20502;-74
2022/01/22 19:19:13;;;;;;;26.73;21.20;;;0.80;99.90;;;;;;4903246;29;20531;-73
2022/01/22 19:21:49;;;;;;;25.43;20.47;;;0.80;99.90;;;;;;4899126;29;20529;-76
2022/01/22 19:24:24;;;;;;;25.53;20.30;;;0.80;99.90;;;;;;4883811;29;20210;-76
2022/01/22 19:29:41;;;;;;;24.67;20.73;;;0.80;99.90;;;;;;4884364;29;20852;-75
2022/01/22 19:32:09;;;;;;;26.97;20.37;;;0.80;99.90;;;;;;4918989;29;20943;-77
2022/01/22 19:34:37;;;;;;;25.27;21.33;;;0.80;99.90;;;;;;4913825;29;20549;-75
2022/01/22 19:37:06;;;;;;;26.53;22.13;;;0.90;99.90;;;;;;4908803;29;20470;-75
2022/01/22 19:39:34;;;;;;;24.87;20.63;;;0.80;99.90;;;;;;4904483;29;20554;-76
2022/01/22 19:42:04;;;;;;;24.87;20.37;;;0.80;99.90;;;;;;4903790;29;20486;-76
2022/01/22 19:44:35;;;;;;;26.73;21.07;;;0.80;99.90;;;;;;4903697;29;20660;-75
2022/01/22 19:47:04;;;;;;;26.60;21.17;;;0.80;99.90;;;;;;4898180;29;20496;-74
2022/01/22 19:49:34;;;;;;;27.30;21.70;;;0.80;99.90;;;;;;4894096;29;20218;-76
2022/01/22 19:52:02;;;;;;;25.80;21.90;;;0.80;99.90;;;;;;4889221;29;20971;-77
2022/01/22 19:54:30;;;;;;;28.37;22.77;;;0.90;99.90;;;;;;4882684;29;20515;-76
2022/01/22 19:56:58;;;;;;;25.70;21.67;;;0.80;99.90;;;;;;4882426;29;20966;-76
2022/01/22 19:59:28;;;;;;;27.17;21.13;;;0.80;99.90;;;;;;4903266;29;20465;-77
2022/01/22 20:01:56;;;;;;;28.03;21.80;;;0.80;99.90;;;;;;4904077;29;20524;-77
2022/01/22 20:04:25;;;;;;;26.37;21.80;;;0.80;99.90;;;;;;4899734;29;20450;-76
2022/01/22 20:06:53;;;;;;;29.43;22.47;;;0.90;99.90;;;;;;4900845;29;20442;-75
2022/01/22 20:09:22;;;;;;;27.30;22.20;;;0.90;99.90;;;;;;4901179;29;20482;-73
2022/01/22 20:11:50;;;;;;;29.00;22.53;;;0.90;99.90;;;;;;4898410;29;20548;-75
2022/01/22 20:14:18;;;;;;;29.20;22.97;;;0.90;99.90;;;;;;4900839;29;20679;-76
2022/01/22 20:16:49;;;;;;;29.17;22.40;;;0.90;99.90;;;;;;4901094;29;20221;-76
2022/01/22 20:19:17;;;;;;;27.70;22.63;;;0.90;99.90;;;;;;4900486;29;20454;-77
2022/01/22 20:21:46;;;;;;;27.73;21.47;;;0.90;99.90;;;;;;4899599;29;20518;-78
2022/01/22 20:24:14;;;;;;;28.33;22.50;;;0.90;99.90;;;;;;4900767;29;20466;-77
2022/01/22 20:26:43;;;;;;;29.83;22.70;;;0.90;99.90;;;;;;4900902;29;20518;-78
2022/01/22 20:29:12;;;;;;;27.87;22.47;;;0.80;99.90;;;;;;4905885;29;20541;-78
2022/01/22 20:31:41;;;;;;;26.57;21.37;;;0.90;99.90;;;;;;4919451;29;20456;-79
2022/01/22 20:34:11;;;;;;;25.13;21.27;;;0.90;99.90;;;;;;4902711;29;20497;-78
2022/01/22 20:36:39;;;;;;;25.53;20.80;;;0.90;99.90;;;;;;4891010;29;20502;-77
2022/01/22 20:39:09;;;;;;;22.73;19.70;;;1.00;99.90;;;;;;4900029;29;20450;-77
2022/01/22 20:41:38;;;;;;;25.50;20.43;;;1.00;99.90;;;;;;4899958;29;20528;-76
2022/01/22 20:44:26;;;;;;;25.47;19.90;;;1.00;99.90;;;;;;4886563;29;20206;-78
2022/01/22 20:46:59;;;;;;;24.60;20.30;;;1.00;99.90;;;;;;4895655;29;20474;-79
2022/01/22 20:49:30;;;;;;;22.37;19.30;;;1.00;99.90;;;;;;4898998;29;20525;-77
2022/01/22 20:52:00;;;;;;;22.37;18.97;;;0.90;99.90;;;;;;4899188;29;20482;-76
2022/01/22 20:54:30;;;;;;;23.87;20.30;;;1.00;99.90;;;;;;4898422;29;20493;-77
2022/01/22 20:56:59;;;;;;;24.27;20.73;;;1.00;99.90;;;;;;4897261;29;20470;-77
2022/01/22 20:59:27;;;;;;;24.57;20.63;;;1.00;99.90;;;;;;4899208;29;20472;-76
2022/01/22 21:01:55;;;;;;;26.40;20.30;;;1.00;99.90;;;;;;4899138;29;20497;-74
2022/01/22 21:04:27;;;;;;;25.33;21.27;;;1.00;99.90;;;;;;4898808;29;20453;-76
2022/01/22 21:07:00;;;;;;;24.63;20.20;;;1.00;99.90;;;;;;4899141;29;20545;-77
2022/01/22 21:09:28;;;;;;;24.53;20.33;;;1.00;99.90;;;;;;4893384;29;20539;-75
2022/01/22 21:11:57;;;;;;;24.53;20.87;;;1.00;99.90;;;;;;4891238;29;20503;-77
2022/01/22 21:14:27;;;;;;;25.73;21.23;;;1.00;99.90;;;;;;4897195;29;20493;-78
2022/01/22 21:16:55;;;;;;;28.80;22.47;;;1.00;99.90;;;;;;4897299;29;20237;-77
2022/01/22 21:19:29;;;;;;;26.97;22.20;;;0.90;99.90;;;;;;4889393;29;20466;-77
2022/01/22 21:22:00;;;;;;;25.07;21.23;;;0.90;99.90;;;;;;4889192;29;20992;-78
2022/01/22 21:24:28;;;;;;;27.73;21.27;;;0.90;99.90;;;;;;4889006;29;21082;-77
2022/01/22 21:26:56;;;;;;;25.73;21.57;;;0.90;99.90;;;;;;4887048;29;20252;-78
